sensor_id;sensor_type;location;lat;lon;timestamp;P1;durP1;ratioP1;P2;durP2;ratioP2
1262;SDS011;62267;50.112;8.704;2022-10-31T00:01:55;19.93;;;16.10;;
1262;SDS011;62267;50.112;8.704;2022-10-31T00:04:41;23.83;;;17.10;;
1262;SDS011;62267;50.112;8.704;2022-10-31T00:07:27;17.40;;;14.90;;
1262;SDS011;62267;50.112;8.704;2022-10-31T00:10:13;17.50;;;14.60;;
1262;SDS011;62267;50.112;8.704;2022-10-31T00:12:59;27.30;;;16.27;;
1262;SDS011;62267;50.112;8.704;2022-10-31T00:15:45;26.80;;;16.70;;
1262;SDS011;62267;50.112;8.704;2022-10-31T00:18:31;17.53;;;15.30;;
1262;SDS011;62267;50.112;8.704;2022-10-31T00:21:17;24.13;;;16.17;;
1262;SDS011;62267;50.112;8.704;2022-10-31T00:24:04;21.30;;;15.80;;
1262;SDS011;62267;50.112;8.704;2022-10-31T00:26:50;22.77;;;15.70;;
1262;SDS011;62267;50.112;8.704;2022-10-31T00:29:39;21.27;;;16.80;;
1262;SDS011;62267;50.112;8.704;2022-10-31T00:32:25;26.50;;;18.10;;
1262;SDS011;62267;50.112;8.704;2022-10-31T00:35:11;29.30;;;17.13;;
1262;SDS011;62267;50.112;8.704;2022-10-31T00:37:56;22.33;;;16.50;;
1262;SDS011;62267;50.112;8.704;2022-10-31T00:40:42;24.80;;;17.30;;
1262;SDS011;62267;50.112;8.704;2022-10-31T00:43:29;23.50;;;16.40;;
1262;SDS011;62267;50.112;8.704;2022-10-31T00:46:14;24.23;;;17.30;;
1262;SDS011;62267;50.112;8.704;2022-10-31T00:49:00;22.13;;;17.07;;
1262;SDS011;62267;50.112;8.704;2022-10-31T00:51:47;24.90;;;18.27;;
1262;SDS011;62267;50.112;8.704;2022-10-31T00:54:33;24.13;;;16.77;;
1262;SDS011;62267;50.112;8.704;2022-10-31T00:57:20;21.53;;;14.90;;
1262;SDS011;62267;50.112;8.704;2022-10-31T01:00:06;22.67;;;16.07;;
1262;SDS011;62267;50.112;8.704;2022-10-31T01:02:52;17.90;;;15.50;;
1262;SDS011;62267;50.112;8.704;2022-10-31T01:05:38;22.60;;;16.43;;
1262;SDS011;62267;50.112;8.704;2022-10-31T01:08:26;21.43;;;17.63;;
1262;SDS011;62267;50.112;8.704;2022-10-31T01:11:14;18.87;;;15.40;;
1262;SDS011;62267;50.112;8.704;2022-10-31T01:14:00;18.27;;;15.13;;
1262;SDS011;62267;50.112;8.704;2022-10-31T01:16:49;20.40;;;15.50;;
1262;SDS011;62267;50.112;8.704;2022-10-31T01:19:35;23.17;;;16.03;;
1262;SDS011;62267;50.112;8.704;2022-10-31T01:22:21;17.27;;;14.70;;
1262;SDS011;62267;50.112;8.704;2022-10-31T01:25:08;16.47;;;14.80;;
1262;SDS011;62267;50.112;8.704;2022-10-31T01:27:54;19.80;;;16.07;;
1262;SDS011;62267;50.112;8.704;2022-10-31T01:30:41;22.30;;;14.70;;
1262;SDS011;62267;50.112;8.704;2022-10-31T01:33:27;23.80;;;16.30;;
1262;SDS011;62267;50.112;8.704;2022-10-31T01:36:18;19.03;;;14.13;;
1262;SDS011;62267;50.112;8.704;2022-10-31T01:39:09;18.60;;;15.23;;
1262;SDS011;62267;50.112;8.704;2022-10-31T01:41:56;18.20;;;15.47;;
1262;SDS011;62267;50.112;8.704;2022-10-31T01:47:32;16.93;;;13.77;;
1262;SDS011;62267;50.112;8.704;2022-10-31T01:50:28;16.50;;;14.43;;
1262;SDS011;62267;50.112;8.704;2022-10-31T01:53:15;20.77;;;14.40;;
1262;SDS011;62267;50.112;8.704;2022-10-31T01:56:07;22.17;;;16.53;;
1262;SDS011;62267;50.112;8.704;2022-10-31T01:58:54;18.13;;;13.53;;
1262;SDS011;62267;50.112;8.704;2022-10-31T02:01:42;17.77;;;12.73;;
1262;SDS011;62267;50.112;8.704;2022-10-31T02:04:28;18.40;;;14.50;;
1262;SDS011;62267;50.112;8.704;2022-10-31T02:07:16;16.80;;;13.27;;
1262;SDS011;62267;50.112;8.704;2022-10-31T02:10:04;21.27;;;13.90;;
1262;SDS011;62267;50.112;8.704;2022-10-31T02:12:53;15.93;;;13.37;;
1262;SDS011;62267;50.112;8.704;2022-10-31T02:15:41;15.60;;;12.43;;
1262;SDS011;62267;50.112;8.704;2022-10-31T02:18:29;21.10;;;15.83;;
1262;SDS011;62267;50.112;8.704;2022-10-31T02:21:28;18.33;;;12.93;;
1262;SDS011;62267;50.112;8.704;2022-10-31T02:24:31;20.90;;;14.00;;
1262;SDS011;62267;50.112;8.704;2022-10-31T02:30:23;17.57;;;13.00;;
1262;SDS011;62267;50.112;8.704;2022-10-31T02:33:22;14.67;;;12.57;;
1262;SDS011;62267;50.112;8.704;2022-10-31T02:36:29;15.80;;;12.83;;
1262;SDS011;62267;50.112;8.704;2022-10-31T02:39:22;18.37;;;12.10;;
1262;SDS011;62267;50.112;8.704;2022-10-31T02:42:14;16.63;;;12.17;;
1262;SDS011;62267;50.112;8.704;2022-10-31T02:47:53;17.30;;;12.50;;
1262;SDS011;62267;50.112;8.704;2022-10-31T02:50:41;17.87;;;13.50;;
1262;SDS011;62267;50.112;8.704;2022-10-31T02:53:31;18.60;;;13.50;;
1262;SDS011;62267;50.112;8.704;2022-10-31T02:56:18;15.53;;;11.93;;
1262;SDS011;62267;50.112;8.704;2022-10-31T02:59:05;14.30;;;12.20;;
1262;SDS011;62267;50.112;8.704;2022-10-31T03:08:08;15.50;;;12.47;;
1262;SDS011;62267;50.112;8.704;2022-10-31T03:11:06;16.13;;;12.23;;
1262;SDS011;62267;50.112;8.704;2022-10-31T03:13:57;16.53;;;12.90;;
1262;SDS011;62267;50.112;8.704;2022-10-31T03:16:47;17.77;;;12.63;;
1262;SDS011;62267;50.112;8.704;2022-10-31T03:19:35;16.60;;;12.90;;
1262;SDS011;62267;50.112;8.704;2022-10-31T03:22:23;16.87;;;13.10;;
1262;SDS011;62267;50.112;8.704;2022-10-31T03:25:10;22.53;;;15.77;;
1262;SDS011;62267;50.112;8.704;2022-10-31T03:27:58;26.03;;;18.97;;
1262;SDS011;62267;50.112;8.704;2022-10-31T03:30:46;17.83;;;13.53;;
1262;SDS011;62267;50.112;8.704;2022-10-31T03:33:35;13.53;;;11.93;;
1262;SDS011;62267;50.112;8.704;2022-10-31T03:36:21;17.47;;;13.80;;
1262;SDS011;62267;50.112;8.704;2022-10-31T03:39:08;15.40;;;13.60;;
1262;SDS011;62267;50.112;8.704;2022-10-31T03:42:00;15.17;;;11.30;;
1262;SDS011;62267;50.112;8.704;2022-10-31T03:44:49;16.47;;;12.20;;
1262;SDS011;62267;50.112;8.704;2022-10-31T03:47:38;20.27;;;11.77;;
1262;SDS011;62267;50.112;8.704;2022-10-31T03:50:25;16.23;;;12.83;;
1262;SDS011;62267;50.112;8.704;2022-10-31T03:53:14;15.70;;;12.37;;
1262;SDS011;62267;50.112;8.704;2022-10-31T03:56:02;17.37;;;12.80;;
1262;SDS011;62267;50.112;8.704;2022-10-31T03:58:58;13.50;;;12.10;;
1262;SDS011;62267;50.112;8.704;2022-10-31T04:01:47;12.83;;;11.50;;
1262;SDS011;62267;50.112;8.704;2022-10-31T04:04:34;16.40;;;11.83;;
1262;SDS011;62267;50.112;8.704;2022-10-31T04:07:23;17.50;;;12.97;;
1262;SDS011;62267;50.112;8.704;2022-10-31T04:10:12;18.10;;;12.37;;
1262;SDS011;62267;50.112;8.704;2022-10-31T04:13:01;17.00;;;13.07;;
1262;SDS011;62267;50.112;8.704;2022-10-31T04:15:57;14.33;;;12.83;;
1262;SDS011;62267;50.112;8.704;2022-10-31T04:18:43;20.33;;;12.90;;
1262;SDS011;62267;50.112;8.704;2022-10-31T04:21:29;14.30;;;12.23;;
1262;SDS011;62267;50.112;8.704;2022-10-31T04:24:16;17.10;;;12.33;;
1262;SDS011;62267;50.112;8.704;2022-10-31T04:27:01;16.60;;;12.83;;
1262;SDS011;62267;50.112;8.704;2022-10-31T04:29:47;16.90;;;13.83;;
1262;SDS011;62267;50.112;8.704;2022-10-31T04:32:35;19.10;;;14.30;;
1262;SDS011;62267;50.112;8.704;2022-10-31T04:35:21;24.70;;;14.70;;
1262;SDS011;62267;50.112;8.704;2022-10-31T04:38:07;19.37;;;13.10;;
1262;SDS011;62267;50.112;8.704;2022-10-31T04:40:53;16.73;;;13.00;;
1262;SDS011;62267;50.112;8.704;2022-10-31T04:44:01;14.90;;;12.63;;
1262;SDS011;62267;50.112;8.704;2022-10-31T04:46:47;12.33;;;11.13;;
1262;SDS011;62267;50.112;8.704;2022-10-31T04:49:33;14.07;;;12.03;;
1262;SDS011;62267;50.112;8.704;2022-10-31T04:52:20;15.43;;;11.53;;
1262;SDS011;62267;50.112;8.704;2022-10-31T04:55:05;16.17;;;12.53;;
1262;SDS011;62267;50.112;8.704;2022-10-31T04:58:24;13.57;;;10.87;;
1262;SDS011;62267;50.112;8.704;2022-10-31T05:01:10;14.13;;;11.40;;
1262;SDS011;62267;50.112;8.704;2022-10-31T05:03:56;17.67;;;12.87;;
1262;SDS011;62267;50.112;8.704;2022-10-31T05:06:42;16.13;;;11.50;;
1262;SDS011;62267;50.112;8.704;2022-10-31T05:09:28;16.93;;;11.30;;
1262;SDS011;62267;50.112;8.704;2022-10-31T05:12:13;13.40;;;11.10;;
1262;SDS011;62267;50.112;8.704;2022-10-31T05:15:19;17.33;;;11.50;;
1262;SDS011;62267;50.112;8.704;2022-10-31T05:18:24;14.33;;;12.07;;
1262;SDS011;62267;50.112;8.704;2022-10-31T05:21:32;13.63;;;12.10;;
1262;SDS011;62267;50.112;8.704;2022-10-31T05:24:20;19.50;;;14.63;;
1262;SDS011;62267;50.112;8.704;2022-10-31T05:27:06;23.93;;;15.93;;
1262;SDS011;62267;50.112;8.704;2022-10-31T05:29:52;23.50;;;15.37;;
1262;SDS011;62267;50.112;8.704;2022-10-31T05:32:42;20.00;;;15.63;;
1262;SDS011;62267;50.112;8.704;2022-10-31T05:36:00;20.90;;;14.97;;
1262;SDS011;62267;50.112;8.704;2022-10-31T05:39:15;21.70;;;16.13;;
1262;SDS011;62267;50.112;8.704;2022-10-31T05:42:08;20.13;;;15.30;;
1262;SDS011;62267;50.112;8.704;2022-10-31T05:44:54;19.70;;;14.23;;
1262;SDS011;62267;50.112;8.704;2022-10-31T05:48:09;21.20;;;13.80;;
1262;SDS011;62267;50.112;8.704;2022-10-31T05:51:14;23.57;;;13.90;;
1262;SDS011;62267;50.112;8.704;2022-10-31T05:53:59;18.30;;;13.40;;
1262;SDS011;62267;50.112;8.704;2022-10-31T05:56:47;19.67;;;14.13;;
1262;SDS011;62267;50.112;8.704;2022-10-31T05:59:33;19.37;;;13.50;;
1262;SDS011;62267;50.112;8.704;2022-10-31T06:02:19;19.83;;;12.40;;
1262;SDS011;62267;50.112;8.704;2022-10-31T06:05:24;21.00;;;15.30;;
1262;SDS011;62267;50.112;8.704;2022-10-31T06:08:11;20.00;;;14.03;;
1262;SDS011;62267;50.112;8.704;2022-10-31T06:10:58;22.73;;;16.10;;
1262;SDS011;62267;50.112;8.704;2022-10-31T06:14:05;21.47;;;14.80;;
1262;SDS011;62267;50.112;8.704;2022-10-31T06:17:00;17.87;;;14.57;;
1262;SDS011;62267;50.112;8.704;2022-10-31T06:20:04;25.83;;;19.67;;
1262;SDS011;62267;50.112;8.704;2022-10-31T06:22:55;25.20;;;20.33;;
1262;SDS011;62267;50.112;8.704;2022-10-31T06:25:42;24.97;;;17.43;;
1262;SDS011;62267;50.112;8.704;2022-10-31T06:28:29;24.03;;;18.00;;
1262;SDS011;62267;50.112;8.704;2022-10-31T06:31:27;21.90;;;17.20;;
1262;SDS011;62267;50.112;8.704;2022-10-31T06:34:14;21.07;;;16.30;;
1262;SDS011;62267;50.112;8.704;2022-10-31T06:36:59;17.80;;;14.87;;
1262;SDS011;62267;50.112;8.704;2022-10-31T06:39:47;20.17;;;13.93;;
1262;SDS011;62267;50.112;8.704;2022-10-31T06:42:34;19.67;;;13.20;;
1262;SDS011;62267;50.112;8.704;2022-10-31T06:45:19;20.10;;;12.53;;
1262;SDS011;62267;50.112;8.704;2022-10-31T06:48:24;17.13;;;13.30;;
1262;SDS011;62267;50.112;8.704;2022-10-31T06:51:29;28.80;;;18.90;;
1262;SDS011;62267;50.112;8.704;2022-10-31T06:54:17;23.40;;;17.80;;
1262;SDS011;62267;50.112;8.704;2022-10-31T06:57:02;26.13;;;19.00;;
1262;SDS011;62267;50.112;8.704;2022-10-31T06:59:49;19.67;;;15.13;;
1262;SDS011;62267;50.112;8.704;2022-10-31T07:05:41;21.57;;;13.47;;
1262;SDS011;62267;50.112;8.704;2022-10-31T07:08:27;18.00;;;14.13;;
1262;SDS011;62267;50.112;8.704;2022-10-31T07:11:13;18.10;;;12.90;;
1262;SDS011;62267;50.112;8.704;2022-10-31T07:14:00;24.43;;;13.07;;
1262;SDS011;62267;50.112;8.704;2022-10-31T07:16:49;21.50;;;13.47;;
1262;SDS011;62267;50.112;8.704;2022-10-31T07:19:41;23.57;;;14.50;;
1262;SDS011;62267;50.112;8.704;2022-10-31T07:22:35;27.17;;;16.53;;
1262;SDS011;62267;50.112;8.704;2022-10-31T07:25:24;21.80;;;15.57;;
1262;SDS011;62267;50.112;8.704;2022-10-31T07:28:26;20.33;;;14.83;;
1262;SDS011;62267;50.112;8.704;2022-10-31T07:31:12;23.73;;;15.93;;
1262;SDS011;62267;50.112;8.704;2022-10-31T07:33:58;24.93;;;16.03;;
1262;SDS011;62267;50.112;8.704;2022-10-31T07:36:44;24.50;;;16.17;;
1262;SDS011;62267;50.112;8.704;2022-10-31T07:39:31;27.10;;;18.60;;
1262;SDS011;62267;50.112;8.704;2022-10-31T07:42:16;31.90;;;16.70;;
1262;SDS011;62267;50.112;8.704;2022-10-31T07:45:04;24.17;;;15.80;;
1262;SDS011;62267;50.112;8.704;2022-10-31T07:48:25;22.63;;;13.60;;
1262;SDS011;62267;50.112;8.704;2022-10-31T07:51:29;15.90;;;13.70;;
1262;SDS011;62267;50.112;8.704;2022-10-31T07:54:50;14.03;;;12.07;;
1262;SDS011;62267;50.112;8.704;2022-10-31T07:57:40;17.03;;;13.00;;
1262;SDS011;62267;50.112;8.704;2022-10-31T08:00:26;29.47;;;21.10;;
1262;SDS011;62267;50.112;8.704;2022-10-31T08:03:14;31.43;;;20.83;;
1262;SDS011;62267;50.112;8.704;2022-10-31T08:06:38;23.53;;;15.80;;
1262;SDS011;62267;50.112;8.704;2022-10-31T08:09:35;19.90;;;14.67;;
1262;SDS011;62267;50.112;8.704;2022-10-31T08:12:30;27.47;;;17.40;;
1262;SDS011;62267;50.112;8.704;2022-10-31T08:15:16;25.57;;;16.67;;
1262;SDS011;62267;50.112;8.704;2022-10-31T08:18:01;17.70;;;14.20;;
1262;SDS011;62267;50.112;8.704;2022-10-31T08:20:54;25.90;;;16.77;;
1262;SDS011;62267;50.112;8.704;2022-10-31T08:23:40;19.60;;;13.60;;
1262;SDS011;62267;50.112;8.704;2022-10-31T08:26:26;17.37;;;14.10;;
1262;SDS011;62267;50.112;8.704;2022-10-31T08:29:13;15.57;;;13.80;;
1262;SDS011;62267;50.112;8.704;2022-10-31T08:32:00;25.97;;;17.27;;
1262;SDS011;62267;50.112;8.704;2022-10-31T08:35:05;21.63;;;15.83;;
1262;SDS011;62267;50.112;8.704;2022-10-31T08:38:11;16.50;;;14.73;;
1262;SDS011;62267;50.112;8.704;2022-10-31T08:40:58;20.80;;;15.80;;
1262;SDS011;62267;50.112;8.704;2022-10-31T08:43:44;20.30;;;16.10;;
1262;SDS011;62267;50.112;8.704;2022-10-31T08:46:33;17.37;;;14.23;;
1262;SDS011;62267;50.112;8.704;2022-10-31T08:49:19;17.93;;;15.13;;
1262;SDS011;62267;50.112;8.704;2022-10-31T08:52:04;18.17;;;16.17;;
1262;SDS011;62267;50.112;8.704;2022-10-31T08:54:58;19.10;;;16.43;;
1262;SDS011;62267;50.112;8.704;2022-10-31T08:58:19;27.27;;;17.10;;
1262;SDS011;62267;50.112;8.704;2022-10-31T09:01:09;23.53;;;16.17;;
1262;SDS011;62267;50.112;8.704;2022-10-31T09:03:55;19.10;;;16.03;;
1262;SDS011;62267;50.112;8.704;2022-10-31T09:06:43;23.40;;;17.87;;
1262;SDS011;62267;50.112;8.704;2022-10-31T09:09:49;25.50;;;18.80;;
1262;SDS011;62267;50.112;8.704;2022-10-31T09:12:36;25.20;;;18.20;;
1262;SDS011;62267;50.112;8.704;2022-10-31T09:15:57;21.53;;;17.33;;
1262;SDS011;62267;50.112;8.704;2022-10-31T09:18:43;27.30;;;21.13;;
1262;SDS011;62267;50.112;8.704;2022-10-31T09:21:33;32.73;;;22.10;;
1262;SDS011;62267;50.112;8.704;2022-10-31T09:24:19;26.83;;;20.63;;
1262;SDS011;62267;50.112;8.704;2022-10-31T09:27:05;25.90;;;20.03;;
1262;SDS011;62267;50.112;8.704;2022-10-31T09:29:56;21.80;;;18.10;;
1262;SDS011;62267;50.112;8.704;2022-10-31T09:32:42;20.00;;;16.70;;
1262;SDS011;62267;50.112;8.704;2022-10-31T09:35:28;18.57;;;16.30;;
1262;SDS011;62267;50.112;8.704;2022-10-31T09:38:16;21.43;;;16.00;;
1262;SDS011;62267;50.112;8.704;2022-10-31T09:41:17;23.67;;;15.90;;
1262;SDS011;62267;50.112;8.704;2022-10-31T09:44:10;21.00;;;16.63;;
1262;SDS011;62267;50.112;8.704;2022-10-31T09:52:58;21.63;;;17.53;;
1262;SDS011;62267;50.112;8.704;2022-10-31T09:55:47;25.00;;;18.60;;
1262;SDS011;62267;50.112;8.704;2022-10-31T09:58:33;20.33;;;17.40;;
1262;SDS011;62267;50.112;8.704;2022-10-31T10:10:51;22.67;;;16.13;;
1262;SDS011;62267;50.112;8.704;2022-10-31T10:14:02;20.97;;;16.27;;
1262;SDS011;62267;50.112;8.704;2022-10-31T10:16:54;23.70;;;17.13;;
1262;SDS011;62267;50.112;8.704;2022-10-31T10:19:49;18.60;;;16.10;;
1262;SDS011;62267;50.112;8.704;2022-10-31T10:22:56;29.70;;;23.57;;
1262;SDS011;62267;50.112;8.704;2022-10-31T10:25:43;25.93;;;17.10;;
1262;SDS011;62267;50.112;8.704;2022-10-31T10:28:32;18.77;;;15.30;;
1262;SDS011;62267;50.112;8.704;2022-10-31T10:31:30;19.40;;;15.90;;
1262;SDS011;62267;50.112;8.704;2022-10-31T10:34:22;21.83;;;16.77;;
1262;SDS011;62267;50.112;8.704;2022-10-31T10:37:28;22.40;;;17.03;;
1262;SDS011;62267;50.112;8.704;2022-10-31T10:40:18;18.93;;;16.00;;
1262;SDS011;62267;50.112;8.704;2022-10-31T10:46:25;20.50;;;15.60;;
1262;SDS011;62267;50.112;8.704;2022-10-31T10:49:43;22.70;;;15.83;;
1262;SDS011;62267;50.112;8.704;2022-10-31T10:52:36;20.43;;;15.53;;
1262;SDS011;62267;50.112;8.704;2022-10-31T10:55:43;21.40;;;16.37;;
1262;SDS011;62267;50.112;8.704;2022-10-31T10:58:32;20.57;;;16.57;;
1262;SDS011;62267;50.112;8.704;2022-10-31T11:01:19;21.80;;;17.63;;
1262;SDS011;62267;50.112;8.704;2022-10-31T11:04:08;21.10;;;17.20;;
1262;SDS011;62267;50.112;8.704;2022-10-31T11:07:01;20.17;;;16.50;;
1262;SDS011;62267;50.112;8.704;2022-10-31T11:09:47;19.80;;;15.90;;
1262;SDS011;62267;50.112;8.704;2022-10-31T11:12:33;20.63;;;17.50;;
1262;SDS011;62267;50.112;8.704;2022-10-31T11:15:21;24.30;;;17.03;;
1262;SDS011;62267;50.112;8.704;2022-10-31T11:18:12;27.30;;;15.17;;
1262;SDS011;62267;50.112;8.704;2022-10-31T11:21:05;18.87;;;16.27;;
1262;SDS011;62267;50.112;8.704;2022-10-31T11:24:01;17.83;;;14.50;;
1262;SDS011;62267;50.112;8.704;2022-10-31T11:26:48;16.13;;;14.33;;
1262;SDS011;62267;50.112;8.704;2022-10-31T11:29:34;19.97;;;14.60;;
1262;SDS011;62267;50.112;8.704;2022-10-31T11:32:22;21.60;;;16.37;;
1262;SDS011;62267;50.112;8.704;2022-10-31T11:35:09;21.90;;;15.20;;
1262;SDS011;62267;50.112;8.704;2022-10-31T11:37:57;18.63;;;16.70;;
1262;SDS011;62267;50.112;8.704;2022-10-31T11:40:56;24.80;;;17.00;;
1262;SDS011;62267;50.112;8.704;2022-10-31T11:43:46;23.60;;;15.90;;
1262;SDS011;62267;50.112;8.704;2022-10-31T11:46:34;22.50;;;17.60;;
1262;SDS011;62267;50.112;8.704;2022-10-31T11:52:20;23.93;;;16.27;;
1262;SDS011;62267;50.112;8.704;2022-10-31T11:58:22;20.50;;;16.37;;
1262;SDS011;62267;50.112;8.704;2022-10-31T12:01:24;23.30;;;16.27;;
1262;SDS011;62267;50.112;8.704;2022-10-31T12:04:10;21.47;;;14.70;;
1262;SDS011;62267;50.112;8.704;2022-10-31T12:06:56;21.20;;;15.20;;
1262;SDS011;62267;50.112;8.704;2022-10-31T12:09:42;25.60;;;17.67;;
1262;SDS011;62267;50.112;8.704;2022-10-31T12:32:31;19.43;;;14.63;;
1262;SDS011;62267;50.112;8.704;2022-10-31T12:35:29;23.10;;;16.10;;
1262;SDS011;62267;50.112;8.704;2022-10-31T12:58:55;19.07;;;12.93;;
1262;SDS011;62267;50.112;8.704;2022-10-31T13:01:53;16.00;;;12.53;;
1262;SDS011;62267;50.112;8.704;2022-10-31T13:04:49;16.23;;;12.80;;
1262;SDS011;62267;50.112;8.704;2022-10-31T13:07:37;15.20;;;11.80;;
1262;SDS011;62267;50.112;8.704;2022-10-31T13:13:48;18.03;;;12.27;;
1262;SDS011;62267;50.112;8.704;2022-10-31T13:16:36;20.50;;;13.20;;
1262;SDS011;62267;50.112;8.704;2022-10-31T13:19:27;15.20;;;11.53;;
1262;SDS011;62267;50.112;8.704;2022-10-31T13:22:20;13.77;;;12.23;;
1262;SDS011;62267;50.112;8.704;2022-10-31T13:27:55;12.60;;;10.30;;
1262;SDS011;62267;50.112;8.704;2022-10-31T13:30:42;12.83;;;11.40;;
1262;SDS011;62267;50.112;8.704;2022-10-31T13:33:38;17.77;;;13.30;;
1262;SDS011;62267;50.112;8.704;2022-10-31T13:36:31;17.43;;;14.20;;
1262;SDS011;62267;50.112;8.704;2022-10-31T13:39:30;16.07;;;14.37;;
1262;SDS011;62267;50.112;8.704;2022-10-31T13:42:19;20.07;;;12.97;;
1262;SDS011;62267;50.112;8.704;2022-10-31T13:45:14;12.33;;;11.03;;
1262;SDS011;62267;50.112;8.704;2022-10-31T13:51:06;15.60;;;10.87;;
1262;SDS011;62267;50.112;8.704;2022-10-31T13:56:41;21.27;;;11.40;;
1262;SDS011;62267;50.112;8.704;2022-10-31T13:59:27;13.30;;;10.97;;
1262;SDS011;62267;50.112;8.704;2022-10-31T14:02:16;14.00;;;11.10;;
1262;SDS011;62267;50.112;8.704;2022-10-31T14:05:03;12.23;;;10.07;;
1262;SDS011;62267;50.112;8.704;2022-10-31T14:07:54;20.50;;;11.40;;
1262;SDS011;62267;50.112;8.704;2022-10-31T14:10:48;14.37;;;10.27;;
1262;SDS011;62267;50.112;8.704;2022-10-31T14:13:36;12.90;;;10.53;;
1262;SDS011;62267;50.112;8.704;2022-10-31T14:16:27;12.70;;;11.43;;
1262;SDS011;62267;50.112;8.704;2022-10-31T14:19:19;15.20;;;10.97;;
1262;SDS011;62267;50.112;8.704;2022-10-31T14:22:18;14.20;;;9.30;;
1262;SDS011;62267;50.112;8.704;2022-10-31T14:28:31;12.63;;;10.10;;
1262;SDS011;62267;50.112;8.704;2022-10-31T14:31:31;13.43;;;12.03;;
1262;SDS011;62267;50.112;8.704;2022-10-31T14:49:19;15.70;;;11.17;;
1262;SDS011;62267;50.112;8.704;2022-10-31T14:52:10;24.20;;;12.40;;
1262;SDS011;62267;50.112;8.704;2022-10-31T14:54:58;17.57;;;11.50;;
1262;SDS011;62267;50.112;8.704;2022-10-31T14:57:49;18.70;;;12.33;;
1262;SDS011;62267;50.112;8.704;2022-10-31T15:00:37;12.10;;;10.17;;
1262;SDS011;62267;50.112;8.704;2022-10-31T15:03:36;14.17;;;11.53;;
1262;SDS011;62267;50.112;8.704;2022-10-31T15:06:39;15.93;;;12.83;;
1262;SDS011;62267;50.112;8.704;2022-10-31T15:09:27;22.20;;;10.67;;
1262;SDS011;62267;50.112;8.704;2022-10-31T15:12:22;21.70;;;12.60;;
1262;SDS011;62267;50.112;8.704;2022-10-31T15:15:12;16.93;;;10.60;;
1262;SDS011;62267;50.112;8.704;2022-10-31T15:18:01;15.17;;;11.33;;
1262;SDS011;62267;50.112;8.704;2022-10-31T15:20:49;14.83;;;10.93;;
1262;SDS011;62267;50.112;8.704;2022-10-31T15:23:35;14.10;;;10.00;;
1262;SDS011;62267;50.112;8.704;2022-10-31T15:26:22;18.07;;;13.17;;
1262;SDS011;62267;50.112;8.704;2022-10-31T15:29:13;16.30;;;13.77;;
1262;SDS011;62267;50.112;8.704;2022-10-31T15:32:00;16.70;;;12.23;;
1262;SDS011;62267;50.112;8.704;2022-10-31T15:34:47;20.43;;;11.70;;
1262;SDS011;62267;50.112;8.704;2022-10-31T15:37:32;21.60;;;14.03;;
1262;SDS011;62267;50.112;8.704;2022-10-31T15:40:19;20.10;;;11.87;;
1262;SDS011;62267;50.112;8.704;2022-10-31T15:43:05;20.83;;;14.00;;
1262;SDS011;62267;50.112;8.704;2022-10-31T15:45:52;22.60;;;14.27;;
1262;SDS011;62267;50.112;8.704;2022-10-31T15:48:38;20.63;;;13.33;;
1262;SDS011;62267;50.112;8.704;2022-10-31T15:51:26;26.03;;;15.70;;
1262;SDS011;62267;50.112;8.704;2022-10-31T15:54:12;31.07;;;14.47;;
1262;SDS011;62267;50.112;8.704;2022-10-31T15:56:59;24.17;;;14.00;;
1262;SDS011;62267;50.112;8.704;2022-10-31T15:59:46;18.17;;;14.40;;
1262;SDS011;62267;50.112;8.704;2022-10-31T16:02:32;22.10;;;16.13;;
1262;SDS011;62267;50.112;8.704;2022-10-31T16:05:18;28.50;;;14.43;;
1262;SDS011;62267;50.112;8.704;2022-10-31T16:08:04;20.77;;;15.23;;
1262;SDS011;62267;50.112;8.704;2022-10-31T16:10:50;25.87;;;18.30;;
1262;SDS011;62267;50.112;8.704;2022-10-31T16:13:37;20.50;;;16.90;;
1262;SDS011;62267;50.112;8.704;2022-10-31T16:16:23;21.30;;;14.00;;
1262;SDS011;62267;50.112;8.704;2022-10-31T16:19:27;23.73;;;15.10;;
1262;SDS011;62267;50.112;8.704;2022-10-31T16:22:14;23.50;;;14.53;;
1262;SDS011;62267;50.112;8.704;2022-10-31T16:25:11;22.13;;;15.07;;
1262;SDS011;62267;50.112;8.704;2022-10-31T16:28:03;19.17;;;13.27;;
1262;SDS011;62267;50.112;8.704;2022-10-31T16:30:50;24.30;;;13.27;;
1262;SDS011;62267;50.112;8.704;2022-10-31T16:33:38;15.40;;;11.70;;
1262;SDS011;62267;50.112;8.704;2022-10-31T16:36:29;21.53;;;14.33;;
1262;SDS011;62267;50.112;8.704;2022-10-31T16:39:20;13.90;;;11.20;;
1262;SDS011;62267;50.112;8.704;2022-10-31T16:42:07;18.10;;;10.83;;
1262;SDS011;62267;50.112;8.704;2022-10-31T16:44:55;18.23;;;12.97;;
1262;SDS011;62267;50.112;8.704;2022-10-31T16:47:41;17.90;;;13.40;;
1262;SDS011;62267;50.112;8.704;2022-10-31T16:50:27;21.67;;;15.43;;
1262;SDS011;62267;50.112;8.704;2022-10-31T16:53:13;28.47;;;17.07;;
1262;SDS011;62267;50.112;8.704;2022-10-31T16:56:03;22.37;;;15.60;;
1262;SDS011;62267;50.112;8.704;2022-10-31T16:58:49;23.10;;;16.70;;
1262;SDS011;62267;50.112;8.704;2022-10-31T17:01:36;20.27;;;15.97;;
1262;SDS011;62267;50.112;8.704;2022-10-31T17:04:22;17.50;;;13.73;;
1262;SDS011;62267;50.112;8.704;2022-10-31T17:07:08;17.90;;;13.97;;
1262;SDS011;62267;50.112;8.704;2022-10-31T17:09:54;18.00;;;15.90;;
1262;SDS011;62267;50.112;8.704;2022-10-31T17:12:41;19.80;;;15.90;;
1262;SDS011;62267;50.112;8.704;2022-10-31T17:15:28;19.37;;;14.70;;
1262;SDS011;62267;50.112;8.704;2022-10-31T17:18:14;22.23;;;15.53;;
1262;SDS011;62267;50.112;8.704;2022-10-31T17:21:01;37.27;;;17.20;;
1262;SDS011;62267;50.112;8.704;2022-10-31T17:23:48;29.50;;;15.63;;
1262;SDS011;62267;50.112;8.704;2022-10-31T17:26:33;23.67;;;16.43;;
1262;SDS011;62267;50.112;8.704;2022-10-31T17:29:19;26.90;;;20.50;;
1262;SDS011;62267;50.112;8.704;2022-10-31T17:32:05;21.47;;;17.80;;
1262;SDS011;62267;50.112;8.704;2022-10-31T17:34:51;21.60;;;14.40;;
1262;SDS011;62267;50.112;8.704;2022-10-31T17:37:37;18.70;;;14.87;;
1262;SDS011;62267;50.112;8.704;2022-10-31T17:40:23;22.70;;;15.80;;
1262;SDS011;62267;50.112;8.704;2022-10-31T17:43:09;18.70;;;15.00;;
1262;SDS011;62267;50.112;8.704;2022-10-31T17:45:54;23.40;;;15.90;;
1262;SDS011;62267;50.112;8.704;2022-10-31T17:48:43;19.50;;;14.80;;
1262;SDS011;62267;50.112;8.704;2022-10-31T17:51:29;26.80;;;15.40;;
1262;SDS011;62267;50.112;8.704;2022-10-31T17:54:15;23.63;;;17.77;;
1262;SDS011;62267;50.112;8.704;2022-10-31T17:57:02;21.73;;;16.83;;
1262;SDS011;62267;50.112;8.704;2022-10-31T17:59:48;28.47;;;19.37;;
1262;SDS011;62267;50.112;8.704;2022-10-31T18:02:35;23.57;;;16.67;;
1262;SDS011;62267;50.112;8.704;2022-10-31T18:05:21;26.93;;;16.17;;
1262;SDS011;62267;50.112;8.704;2022-10-31T18:08:09;19.27;;;16.30;;
1262;SDS011;62267;50.112;8.704;2022-10-31T18:10:55;27.10;;;16.07;;
1262;SDS011;62267;50.112;8.704;2022-10-31T18:13:43;25.07;;;19.20;;
1262;SDS011;62267;50.112;8.704;2022-10-31T18:16:29;19.87;;;17.13;;
1262;SDS011;62267;50.112;8.704;2022-10-31T18:19:15;21.67;;;16.90;;
1262;SDS011;62267;50.112;8.704;2022-10-31T18:22:01;20.90;;;17.20;;
1262;SDS011;62267;50.112;8.704;2022-10-31T18:24:47;28.50;;;19.17;;
1262;SDS011;62267;50.112;8.704;2022-10-31T18:27:33;25.07;;;18.53;;
1262;SDS011;62267;50.112;8.704;2022-10-31T18:30:20;21.83;;;16.93;;
1262;SDS011;62267;50.112;8.704;2022-10-31T18:33:06;21.37;;;17.80;;
1262;SDS011;62267;50.112;8.704;2022-10-31T18:35:52;44.30;;;30.63;;
1262;SDS011;62267;50.112;8.704;2022-10-31T18:38:39;44.90;;;25.10;;
1262;SDS011;62267;50.112;8.704;2022-10-31T18:41:25;30.60;;;24.20;;
1262;SDS011;62267;50.112;8.704;2022-10-31T18:44:11;32.10;;;20.50;;